createdAt,value
2019-02-11T00:01:00.900Z,100216.83
2019-02-11T00:02:07.653Z,100217.77
2019-02-11T00:03:12.973Z,100223.03
2019-02-11T00:04:18.366Z,100223.41
2019-02-11T00:05:23.343Z,100230.09
2019-02-11T00:06:28.314Z,100234.97
2019-02-11T00:07:35.304Z,100239.89
2019-02-11T00:08:40.275Z,100243.38
2019-02-11T00:09:45.512Z,100249.95
2019-02-11T00:10:50.604Z,100247.33
2019-02-11T00:11:55.687Z,100247.33
2019-02-11T00:13:00.980Z,100248.26
2019-02-11T00:14:05.905Z,100252.59
2019-02-11T00:15:10.950Z,100252.93
2019-02-11T00:16:16.021Z,100260.27
2019-02-11T00:17:20.981Z,100262.78
2019-02-11T00:18:26.342Z,100267.58
2019-02-11T00:19:31.629Z,100274.63
2019-02-11T00:20:36.879Z,100262.78
2019-02-11T00:21:42.912Z,100275.47
2019-02-11T00:22:47.889Z,100276.20
2019-02-11T00:23:52.913Z,100280.05
2019-02-11T00:24:58.335Z,100284.47
2019-02-11T00:26:04.049Z,100275.26
2019-02-11T00:27:09.292Z,100276.11
2019-02-11T00:28:14.310Z,100287.48
2019-02-11T00:29:19.300Z,100287.48
2019-02-11T00:30:24.309Z,100293.22
2019-02-11T00:31:29.363Z,100296.32
2019-02-11T00:32:34.948Z,100299.33
2019-02-11T00:33:39.939Z,100304.59
2019-02-11T00:34:44.966Z,100306.47
2019-02-11T00:35:50.066Z,100311.02
2019-02-11T00:36:55.289Z,100315.43
2019-02-11T00:38:00.326Z,100316.75
2019-02-11T00:39:09.288Z,100309.82
2019-02-11T00:40:14.367Z,100314.02
2019-02-11T00:41:19.792Z,100327.53
2019-02-11T00:42:24.899Z,100327.53
2019-02-11T00:43:30.189Z,100329.70
2019-02-11T00:44:36.404Z,100331.48
2019-02-11T00:45:41.738Z,100336.41
2019-02-11T00:46:46.725Z,100332.08
2019-02-11T00:47:51.956Z,100337.92
2019-02-11T00:48:57.137Z,100344.98
2019-02-11T00:50:04.136Z,100340.77
2019-02-11T00:51:09.197Z,100345.28
2019-02-11T00:52:14.287Z,100346.33
2019-02-11T00:53:19.403Z,100344.55
2019-02-11T00:54:24.453Z,100351.02
2019-02-11T00:55:29.878Z,100352.83
2019-02-11T00:56:34.891Z,100355.46
2019-02-11T00:57:41.610Z,100357.59
2019-02-11T00:58:47.077Z,100365.61
2019-02-11T00:59:52.140Z,100366.45
2019-02-11T01:00:57.527Z,100365.98
2019-02-11T01:02:02.597Z,100369.55
2019-02-11T01:03:08.080Z,100376.14
2019-02-11T01:04:13.441Z,100372.06
2019-02-11T01:05:18.658Z,100377.13
2019-02-11T01:06:23.799Z,100380.05
2019-02-11T01:07:29.378Z,100383.41
2019-02-11T01:08:36.345Z,100387.16
2019-02-11T01:09:41.539Z,100392.80
2019-02-11T01:10:46.601Z,100392.13
2019-02-11T01:11:51.696Z,100404.61
2019-02-11T01:12:57.161Z,100411.54
2019-02-11T01:14:02.360Z,100405.34
2019-02-11T01:15:08.478Z,100404.95
2019-02-11T01:16:13.517Z,100410.61
2019-02-11T01:17:18.487Z,100414.94
2019-02-11T01:18:23.510Z,100405.12
2019-02-11T01:19:28.830Z,100405.51
2019-02-11T01:20:33.934Z,100404.07
2019-02-11T01:21:39.867Z,100414.89
2019-02-11T01:22:45.344Z,100417.41
2019-02-11T01:23:50.240Z,100423.52
2019-02-11T01:24:55.743Z,100425.78
2019-02-11T01:26:01.148Z,100421.83
2019-02-11T01:27:06.189Z,100428.06
2019-02-11T01:28:11.707Z,100429.84
2019-02-11T01:29:16.753Z,100432.95
2019-02-11T01:30:21.724Z,100433.89
2019-02-11T01:31:26.888Z,100437.84
2019-02-11T01:32:33.150Z,100436.17
2019-02-11T01:33:38.395Z,100445.39
2019-02-11T01:34:43.721Z,100444.55
2019-02-11T01:35:48.791Z,100443.69
2019-02-11T01:36:53.810Z,100443.69
2019-02-11T01:37:58.805Z,100442.75
2019-02-11T01:39:05.317Z,100442.55
2019-02-11T01:40:11.542Z,100444.50
2019-02-11T01:41:16.626Z,100443.28
2019-02-11T01:42:21.735Z,100449.86
2019-02-11T01:43:26.998Z,100449.86
2019-02-11T01:44:32.072Z,100454.75
2019-02-11T01:45:37.220Z,100456.91
2019-02-11T01:46:42.266Z,100458.99
2019-02-11T01:47:47.277Z,100462.09
2019-02-11T01:48:52.520Z,100463.87
2019-02-11T01:52:02.573Z,100460.98
2019-02-11T01:53:07.542Z,100473.39
2019-02-11T01:54:12.513Z,100476.99
2019-02-11T01:55:17.555Z,100479.62
2019-02-11T01:56:22.573Z,100468.50
2019-02-11T01:57:27.669Z,100476.28
2019-02-11T01:58:32.601Z,100474.41
2019-02-11T01:59:37.548Z,100472.98
2019-02-11T02:00:42.654Z,100480.67
2019-02-11T02:01:47.638Z,100479.14
2019-02-11T02:02:52.619Z,100475.20
2019-02-11T02:03:57.596Z,100475.11
2019-02-11T02:05:03.066Z,100478.00
2019-02-11T02:06:08.160Z,100482.21
2019-02-11T02:07:13.133Z,100483.36
2019-02-11T02:08:18.238Z,100484.08
2019-02-11T02:09:23.523Z,100487.91
2019-02-11T02:10:28.523Z,100489.88
2019-02-11T02:11:33.828Z,100485.92
2019-02-11T02:12:39.239Z,100480.44
2019-02-11T02:13:45.235Z,100492.59
2019-02-11T02:14:50.250Z,100486.00
2019-02-11T02:15:55.225Z,100497.27
2019-02-11T02:17:00.194Z,100498.20
2019-02-11T02:18:05.338Z,100492.59
2019-02-11T02:19:10.991Z,100500.50
2019-02-11T02:20:15.940Z,100499.17
2019-02-11T02:21:21.032Z,100502.75
2019-02-11T02:22:26.384Z,100508.41
2019-02-11T02:23:31.400Z,100508.87
2019-02-11T02:24:37.593Z,100508.02
2019-02-11T02:25:42.644Z,100505.47
2019-02-11T02:26:47.942Z,100516.52
2019-02-11T02:27:53.227Z,100519.50
2019-02-11T02:28:58.312Z,100520.94
2019-02-11T02:30:03.667Z,100517.83
2019-02-11T02:31:08.619Z,100520.94
2019-02-11T02:32:13.630Z,100531.94
2019-02-11T02:33:18.668Z,100527.99
2019-02-11T02:34:23.624Z,100531.47
2019-02-11T02:35:28.796Z,100538.06
2019-02-11T02:36:34.126Z,100534.95
2019-02-11T02:37:39.239Z,100545.50
2019-02-11T02:38:44.564Z,100546.44
2019-02-11T02:39:49.887Z,100551.32
2019-02-11T02:40:54.990Z,100556.97
2019-02-11T02:41:59.889Z,100560.45
2019-02-11T02:43:04.883Z,100559.98
2019-02-11T02:44:10.285Z,100561.31
2019-02-11T02:45:15.245Z,100560.72
2019-02-11T02:46:20.570Z,100561.10
2019-02-11T02:47:25.559Z,100560.13
2019-02-11T02:48:30.544Z,100571.78
2019-02-11T02:49:35.927Z,100565.20
2019-02-11T02:50:40.942Z,100569.15
2019-02-11T02:51:47.834Z,100567.56
2019-02-11T02:52:52.922Z,100572.95
2019-02-11T02:53:57.965Z,100578.23
2019-02-11T02:55:04.050Z,100574.83
2019-02-11T02:56:09.066Z,100575.89
2019-02-11T02:57:14.679Z,100575.42
2019-02-11T02:58:19.649Z,100575.80
2019-02-11T02:59:24.647Z,100574.48
2019-02-11T03:00:30.160Z,100580.22
2019-02-11T03:01:35.733Z,100576.73
2019-02-11T03:02:40.724Z,100580.69
2019-02-11T03:03:45.736Z,100578.98
2019-02-11T03:04:51.023Z,100582.00
2019-02-11T03:05:57.043Z,100590.30
2019-02-11T03:07:02.368Z,100592.92
2019-02-11T03:08:07.353Z,100592.08
2019-02-11T03:09:12.642Z,100600.45
2019-02-11T03:10:17.610Z,100600.45
2019-02-11T03:11:23.047Z,100597.34
2019-02-11T03:12:28.025Z,100608.36
2019-02-11T03:13:33.442Z,100611.45
2019-02-11T03:14:38.880Z,100610.61
2019-02-11T03:15:43.881Z,100618.52
2019-02-11T03:16:49.004Z,100613.24
2019-02-11T03:17:54.259Z,100619.83
2019-02-11T03:18:59.545Z,100625.56
2019-02-11T03:20:05.223Z,100621.15
2019-02-11T03:21:10.259Z,100623.70
2019-02-11T03:22:15.661Z,100628.50
2019-02-11T03:23:20.756Z,100623.58
2019-02-11T03:24:25.713Z,100640.63
2019-02-11T03:25:30.746Z,100631.40
2019-02-11T03:26:35.705Z,100635.23
2019-02-11T03:27:40.718Z,100636.08
2019-02-11T03:28:45.810Z,100647.48
2019-02-11T03:29:51.834Z,100638.84
2019-02-11T03:30:56.808Z,100647.09
2019-02-11T03:32:01.898Z,100635.53
2019-02-11T03:33:06.903Z,100648.59
2019-02-11T03:34:12.251Z,100643.44
2019-02-11T03:35:17.685Z,100651.34
2019-02-11T03:36:22.892Z,100643.91
2019-02-11T03:37:27.845Z,100652.36
2019-02-11T03:38:33.095Z,100648.53
2019-02-11T03:39:38.553Z,100649.93
2019-02-11T03:40:43.607Z,100655.66
2019-02-11T03:41:48.737Z,100652.09
2019-02-11T03:42:54.218Z,100653.88
2019-02-11T03:43:59.248Z,100655.20
2019-02-11T03:45:05.033Z,100659.53
2019-02-11T03:46:10.262Z,100666.97
2019-02-11T03:47:15.429Z,100671.19
2019-02-11T03:48:20.462Z,100667.23
2019-02-11T03:49:26.745Z,100669.41
2019-02-11T03:50:31.941Z,100673.83
2019-02-11T03:51:37.842Z,100666.86
2019-02-11T03:52:44.711Z,100674.41
2019-02-11T03:53:49.838Z,100679.68
2019-02-11T03:54:54.952Z,100672.71
2019-02-11T03:55:59.993Z,100679.68
2019-02-11T03:57:05.298Z,100684.56
2019-02-11T03:58:10.547Z,100689.25
2019-02-11T03:59:16.158Z,100689.25
2019-02-11T04:00:21.261Z,100685.42
2019-02-11T04:01:26.749Z,100697.16
2019-02-11T04:02:32.436Z,100695.84
2019-02-11T04:03:37.533Z,100700.65
2019-02-11T04:04:43.616Z,100702.93
2019-02-11T04:05:48.586Z,100705.56
2019-02-11T04:06:54.838Z,100704.13
2019-02-11T04:08:00.128Z,100709.41
2019-02-11T04:09:06.879Z,100706.69
2019-02-11T04:10:12.380Z,100714.94
2019-02-11T04:11:18.072Z,100710.52
2019-02-11T04:12:23.402Z,100713.55
2019-02-11T04:13:28.537Z,100715.33
2019-02-11T04:14:33.923Z,100719.20
2019-02-11T04:15:38.962Z,100726.25
2019-02-11T04:16:44.430Z,100724.47
2019-02-11T04:17:49.664Z,100716.91
2019-02-11T04:18:55.214Z,100734.42
2019-02-11T04:20:00.382Z,100734.70
2019-02-11T04:21:05.460Z,100737.80
2019-02-11T04:22:11.110Z,100736.48
2019-02-11T04:23:16.202Z,100746.55
2019-02-11T04:24:21.175Z,100747.79
2019-02-11T04:25:26.795Z,100743.37
2019-02-11T04:26:33.499Z,100737.52
2019-02-11T04:27:38.630Z,100746.63
2019-02-11T04:28:44.113Z,100751.81
2019-02-11T04:29:49.103Z,100750.50
2019-02-11T04:30:54.464Z,100764.99
2019-02-11T04:31:59.670Z,100763.76
2019-02-11T04:33:04.732Z,100758.98
2019-02-11T04:34:10.199Z,100768.21
2019-02-11T04:35:15.337Z,100768.67
2019-02-11T04:36:20.285Z,100773.95
2019-02-11T04:37:25.660Z,100760.50
2019-02-11T04:38:30.706Z,100771.05
2019-02-11T04:39:35.844Z,100777.72
2019-02-11T04:40:40.815Z,100776.13
2019-02-11T04:41:46.134Z,100778.66
2019-02-11T04:42:51.176Z,100777.33
2019-02-11T04:43:56.221Z,100781.67
2019-02-11T04:45:01.551Z,100785.04
2019-02-11T04:46:06.595Z,100788.06
2019-02-11T04:47:11.873Z,100785.89
2019-02-11T04:48:17.032Z,100785.54
2019-02-11T04:49:22.003Z,100793.33
2019-02-11T04:50:27.503Z,100794.07
2019-02-11T04:51:32.465Z,100795.77
2019-02-11T04:52:37.419Z,100801.05
2019-02-11T04:53:42.410Z,100804.53
2019-02-11T04:54:47.443Z,100807.25
2019-02-11T04:55:52.414Z,100808.22
2019-02-11T04:56:57.995Z,100804.73
2019-02-11T04:58:03.012Z,100809.15
2019-02-11T04:59:07.979Z,100798.22
2019-02-11T05:00:13.204Z,100816.32
2019-02-11T05:01:18.937Z,100814.53
2019-02-11T05:02:23.881Z,100814.62
2019-02-11T05:03:29.121Z,100814.23
2019-02-11T05:04:34.105Z,100812.17
2019-02-11T05:05:39.108Z,100815.66
2019-02-11T05:06:44.139Z,100818.77
2019-02-11T05:07:49.161Z,100822.72
2019-02-11T05:08:54.472Z,100819.70
2019-02-11T05:09:59.558Z,100823.77
2019-02-11T05:11:04.595Z,100822.45
2019-02-11T05:12:09.601Z,100830.44
2019-02-11T05:13:14.990Z,100827.52
2019-02-11T05:14:20.157Z,100825.83
2019-02-11T05:15:25.116Z,100823.30
2019-02-11T05:16:30.142Z,100837.41
2019-02-11T05:17:35.147Z,100831.28
2019-02-11T05:18:40.519Z,100841.94
2019-02-11T05:19:45.571Z,100839.39
2019-02-11T05:20:50.683Z,100843.80
2019-02-11T05:21:56.199Z,100839.84
2019-02-11T05:23:01.784Z,100841.17
2019-02-11T05:24:06.853Z,100845.50
2019-02-11T05:25:11.971Z,100847.21
2019-02-11T05:26:17.376Z,100843.26
2019-02-11T05:27:22.504Z,100850.66
2019-02-11T05:28:27.506Z,100847.67
2019-02-11T05:29:32.488Z,100841.17
2019-02-11T05:30:37.483Z,100848.72
2019-02-11T05:31:42.544Z,100854.34
2019-02-11T05:32:47.564Z,100857.83
2019-02-11T05:33:52.630Z,100857.37
2019-02-11T05:34:58.014Z,100863.67
2019-02-11T05:36:07.600Z,100864.22
2019-02-11T05:37:12.655Z,100864.33
2019-02-11T05:38:17.690Z,100870.53
2019-02-11T05:39:22.766Z,100866.77
2019-02-11T05:40:28.075Z,100870.72
2019-02-11T05:41:33.428Z,100868.66
2019-02-11T05:42:38.488Z,100871.84
2019-02-11T05:43:43.423Z,100863.20
2019-02-11T05:44:53.915Z,100864.13
2019-02-11T05:45:55.514Z,100864.59
2019-02-11T05:47:00.503Z,100872.14
2019-02-11T05:48:06.612Z,100869.50
2019-02-11T05:49:11.751Z,100886.24
2019-02-11T05:50:16.867Z,100880.59
2019-02-11T05:51:21.923Z,100886.24
2019-02-11T05:52:26.841Z,100883.14
2019-02-11T05:53:32.026Z,100896.98
2019-02-11T05:54:37.366Z,100895.02
2019-02-11T05:55:42.436Z,100898.66
2019-02-11T05:56:47.507Z,100899.52
2019-02-11T05:57:52.578Z,100905.17
2019-02-11T05:58:58.011Z,100905.53
2019-02-11T06:00:03.474Z,100906.69
2019-02-11T06:01:08.356Z,100913.09
2019-02-11T06:02:14.704Z,100913.83
2019-02-11T06:03:19.657Z,100916.28
2019-02-11T06:04:25.538Z,100922.29
2019-02-11T06:05:30.950Z,100919.50
2019-02-11T06:06:36.044Z,100926.09
2019-02-11T06:07:41.099Z,100923.62
2019-02-11T06:08:46.160Z,100932.30
2019-02-11T06:09:51.251Z,100940.87
2019-02-11T06:10:56.265Z,100936.06
2019-02-11T06:12:01.623Z,100946.61
2019-02-11T06:18:10.109Z,100946.69
2019-02-11T06:19:15.124Z,100958.27
2019-02-11T06:20:20.061Z,100956.21
2019-02-11T06:21:25.045Z,100962.41
2019-02-11T06:22:29.997Z,100979.44
2019-02-11T06:23:35.249Z,100973.81
2019-02-11T06:24:40.310Z,100976.91
2019-02-11T06:25:45.214Z,100976.44
2019-02-11T06:26:51.677Z,100980.29
2019-02-11T06:27:57.418Z,100978.97
2019-02-11T06:29:02.493Z,100980.75
2019-02-11T06:30:08.668Z,100986.88
2019-02-11T06:31:13.863Z,100987.84
2019-02-11T06:32:18.886Z,100994.78
2019-02-11T06:33:23.989Z,101004.86
2019-02-11T06:34:29.627Z,100999.70
2019-02-11T06:35:34.985Z,101002.52
2019-02-11T06:36:39.942Z,101003.06
2019-02-11T06:37:44.897Z,101003.25
2019-02-11T06:38:50.062Z,101007.31
2019-02-11T06:39:55.694Z,101011.34
2019-02-11T06:41:00.818Z,101009.09
2019-02-11T06:42:06.087Z,101019.17
2019-02-11T06:43:11.067Z,101022.27
2019-02-11T06:44:16.361Z,101022.73
2019-02-11T06:45:21.767Z,101030.53
2019-02-11T06:46:32.269Z,101034.88
2019-02-11T06:47:37.953Z,101040.14
2019-02-11T06:48:43.808Z,101044.48
2019-02-11T06:49:48.794Z,101046.16
2019-02-11T06:50:53.771Z,101053.14
2019-02-11T06:51:58.732Z,101057.48
2019-02-11T06:53:04.203Z,101059.27
2019-02-11T06:54:09.308Z,101066.70
2019-02-11T06:55:14.437Z,101061.33
2019-02-11T06:56:19.559Z,101077.06
2019-02-11T06:57:24.593Z,101072.54
2019-02-11T06:58:29.911Z,101078.20
2019-02-11T06:59:34.961Z,101077.73
2019-02-11T07:00:40.020Z,101078.20
2019-02-11T07:01:45.015Z,101084.05
2019-02-11T07:02:49.922Z,101085.44
2019-02-11T07:03:55.284Z,101092.03
2019-02-11T07:05:00.282Z,101088.47
2019-02-11T07:06:05.739Z,101088.54
2019-02-11T07:07:10.745Z,101095.13
2019-02-11T07:08:15.935Z,101095.13
2019-02-11T07:09:21.163Z,101092.49
2019-02-11T07:10:26.242Z,101101.64
2019-02-11T07:11:31.189Z,101100.22
2019-02-11T07:12:36.562Z,101115.50
2019-02-11T07:13:41.846Z,101112.30
2019-02-11T07:14:46.955Z,101113.43
2019-02-11T07:15:51.997Z,101114.20
2019-02-11T07:16:56.956Z,101120.23
2019-02-11T07:18:01.968Z,101123.72
2019-02-11T07:19:07.543Z,101123.14
2019-02-11T07:20:13.062Z,101111.75
2019-02-11T07:21:18.206Z,101118.27
2019-02-11T07:22:23.190Z,101123.42
2019-02-11T07:23:28.240Z,101132.19
2019-02-11T07:24:33.506Z,101136.54
2019-02-11T07:25:38.559Z,101144.34
2019-02-11T07:26:43.819Z,101136.93
2019-02-11T07:27:48.814Z,101144.84
2019-02-11T07:28:53.765Z,101147.76
2019-02-11T07:29:59.083Z,101149.93
2019-02-11T07:31:04.196Z,101142.88
2019-02-11T07:32:09.168Z,101145.87
2019-02-11T07:33:14.768Z,101153.23
2019-02-11T07:34:19.752Z,101158.87
2019-02-11T07:35:24.896Z,101159.65
2019-02-11T07:36:29.900Z,101161.33
2019-02-11T07:37:35.007Z,101156.91
2019-02-11T07:38:39.921Z,101163.03
2019-02-11T07:39:45.018Z,101158.15
2019-02-11T07:40:50.167Z,101166.81
2019-02-11T07:42:18.645Z,101166.27
2019-02-11T07:43:27.913Z,101163.13
2019-02-11T07:44:38.150Z,101170.05
2019-02-11T07:46:04.962Z,101174.93
2019-02-11T07:47:09.992Z,101161.53
2019-02-11T07:48:15.435Z,101173.19
2019-02-11T07:49:20.672Z,101169.99
2019-02-11T07:50:25.662Z,101168.07
2019-02-11T07:51:30.653Z,101167.89
2019-02-11T07:52:35.766Z,101177.20
2019-02-11T07:53:40.982Z,101170.89
2019-02-11T07:54:46.374Z,101177.09
2019-02-11T07:55:51.651Z,101183.86
2019-02-11T07:56:56.743Z,101184.03
2019-02-11T07:58:01.878Z,101191.09
2019-02-11T07:59:07.057Z,101193.63
2019-02-11T08:00:12.328Z,101191.77
2019-02-11T08:01:17.351Z,101197.25
2019-02-11T08:02:22.439Z,101196.69
2019-02-11T08:03:27.394Z,101200.07
2019-02-11T08:04:32.513Z,101203.84
2019-02-11T08:05:37.663Z,101195.41
2019-02-11T08:06:42.694Z,101204.52
2019-02-11T08:07:48.018Z,101204.45
2019-02-11T08:08:53.100Z,101206.16
2019-02-11T08:09:58.092Z,101200.88
2019-02-11T08:11:05.118Z,101224.44
2019-02-11T08:12:10.189Z,101220.84
2019-02-11T08:13:15.319Z,101219.91
2019-02-11T08:14:20.460Z,101224.16
2019-02-11T08:15:27.440Z,101222.30
2019-02-11T08:16:32.559Z,101228.25
2019-02-11T08:17:37.969Z,101226.75
2019-02-11T08:18:43.054Z,101227.50
2019-02-11T08:19:48.145Z,101233.17
2019-02-11T08:20:54.793Z,101232.70
2019-02-11T08:21:59.890Z,101230.14
2019-02-11T08:23:11.814Z,101236.73
2019-02-11T08:24:11.808Z,101238.91
2019-02-11T08:25:17.316Z,101246.25
2019-02-11T08:26:22.252Z,101250.20
2019-02-11T08:27:27.233Z,101251.81
2019-02-11T08:28:32.186Z,101250.88
2019-02-11T08:29:37.242Z,101260.90
2019-02-11T08:30:42.276Z,101260.33
2019-02-11T08:31:47.348Z,101262.86
2019-02-11T08:32:52.440Z,101261.08
2019-02-11T08:33:57.751Z,101264.96
2019-02-11T08:35:02.876Z,101260.36
2019-02-11T08:36:07.968Z,101261.11
2019-02-11T08:37:13.086Z,101266.31
2019-02-11T08:38:18.314Z,101273.58
2019-02-11T08:39:23.862Z,101269.91
2019-02-11T08:40:28.947Z,101272.91
2019-02-11T08:41:33.861Z,101270.84
2019-02-11T08:42:38.935Z,101268.38
2019-02-11T08:43:43.872Z,101267.70
2019-02-11T08:44:48.868Z,101269.20
2019-02-11T08:45:53.873Z,101274.27
2019-02-11T08:46:58.892Z,101274.09
2019-02-11T08:48:03.904Z,101278.19
2019-02-11T08:49:08.894Z,101278.77
2019-02-11T08:50:14.220Z,101285.07
2019-02-11T08:51:19.147Z,101283.46
2019-02-11T08:52:24.160Z,101294.02
2019-02-11T08:53:29.066Z,101298.50
2019-02-11T08:54:34.013Z,101295.87
2019-02-11T08:55:39.490Z,101291.55
2019-02-11T08:56:44.709Z,101300.22
2019-02-11T08:57:50.230Z,101302.85
2019-02-11T08:58:56.369Z,101304.56
2019-02-11T09:00:01.408Z,101309.56
2019-02-11T09:01:07.052Z,101306.67
2019-02-11T09:02:12.593Z,101315.16
2019-02-11T09:03:17.489Z,101310.84
2019-02-11T09:04:22.431Z,101311.92
2019-02-11T09:05:27.684Z,101312.02
2019-02-11T09:06:32.721Z,101315.80
2019-02-11T09:07:37.990Z,101320.55
2019-02-11T09:08:43.251Z,101326.18
2019-02-11T09:09:48.261Z,101330.63
2019-02-11T09:10:53.448Z,101334.27
2019-02-11T09:11:58.445Z,101335.31
2019-02-11T09:13:03.546Z,101343.52
2019-02-11T09:14:08.495Z,101338.63
2019-02-11T09:15:13.627Z,101341.27
2019-02-11T09:16:18.975Z,101342.19
2019-02-11T09:17:24.158Z,101336.16
2019-02-11T09:18:29.260Z,101348.11
2019-02-11T09:19:35.137Z,101344.27
2019-02-11T09:20:42.040Z,101345.66
2019-02-11T09:21:47.302Z,101335.66
2019-02-11T09:22:52.852Z,101341.69
2019-02-11T09:23:58.084Z,101343.58
2019-02-11T09:25:03.270Z,101346.79
2019-02-11T09:26:08.574Z,101348.18
2019-02-11T09:27:13.603Z,101355.34
2019-02-11T09:28:18.807Z,101352.31
2019-02-11T09:29:23.865Z,101354.02
2019-02-11T09:30:29.089Z,101352.60
2019-02-11T09:31:34.133Z,101347.25
2019-02-11T09:32:39.192Z,101352.25
2019-02-11T09:33:44.288Z,101355.56
2019-02-11T09:34:49.311Z,101355.96
2019-02-11T09:35:54.269Z,101359.34
2019-02-11T09:36:59.309Z,101368.52
2019-02-11T09:38:04.387Z,101358.70
2019-02-11T09:39:10.390Z,101366.84
2019-02-11T09:40:16.233Z,101377.14
2019-02-11T09:41:21.245Z,101377.19
2019-02-11T09:42:26.252Z,101369.83
2019-02-11T09:43:31.698Z,101380.92
2019-02-11T09:44:37.478Z,101384.81
2019-02-11T09:45:42.572Z,101387.45
2019-02-11T09:46:47.871Z,101386.41
2019-02-11T09:47:53.190Z,101398.12
2019-02-11T09:48:58.157Z,101387.38
2019-02-11T09:50:12.615Z,101396.36
2019-02-11T09:51:17.976Z,101398.72
2019-02-11T09:52:22.924Z,101408.91
2019-02-11T09:53:28.143Z,101402.05
2019-02-11T09:54:33.285Z,101401.02
2019-02-11T09:55:38.324Z,101412.26
2019-02-11T09:56:43.530Z,101406.12
2019-02-11T09:57:48.766Z,101416.22
2019-02-11T09:58:53.714Z,101420.19
2019-02-11T09:59:58.650Z,101422.83
2019-02-11T10:01:03.727Z,101415.29
2019-02-11T10:02:08.851Z,101423.03
2019-02-11T10:03:13.869Z,101420.75
2019-02-11T10:04:18.991Z,101426.70
2019-02-11T10:05:23.972Z,101424.38
2019-02-11T10:06:29.044Z,101430.80
2019-02-11T10:07:34.048Z,101429.83
2019-02-11T10:08:39.090Z,101428.62
2019-02-11T10:09:44.307Z,101433.05
2019-02-11T10:10:49.991Z,101429.94
2019-02-11T10:11:54.973Z,101439.58
2019-02-11T10:13:00.074Z,101439.47
2019-02-11T10:14:05.222Z,101446.75
2019-02-11T10:15:11.068Z,101448.75
2019-02-11T10:16:16.327Z,101445.84
2019-02-11T10:17:29.537Z,101460.09
2019-02-11T10:18:28.631Z,101458.22
2019-02-11T10:19:33.874Z,101453.77
2019-02-11T10:20:38.843Z,101458.58
2019-02-11T10:21:45.384Z,101460.30
2019-02-11T10:22:51.364Z,101452.75
2019-02-11T10:23:56.623Z,101465.00
2019-02-11T10:25:02.334Z,101458.39
2019-02-11T10:26:07.433Z,101458.86
2019-02-11T10:27:12.757Z,101456.14
2019-02-11T10:28:18.050Z,101460.03
2019-02-11T10:29:23.177Z,101464.82
2019-02-11T10:30:28.499Z,101467.47
2019-02-11T10:31:34.526Z,101458.13
2019-02-11T10:32:41.028Z,101463.63
2019-02-11T10:33:46.318Z,101462.58
2019-02-11T10:34:51.576Z,101464.58
2019-02-11T10:35:56.839Z,101474.03
2019-02-11T10:37:02.201Z,101475.63
2019-02-11T10:38:07.643Z,101472.05
2019-02-11T10:39:12.829Z,101467.98
2019-02-11T10:40:18.552Z,101468.83
2019-02-11T10:41:23.735Z,101471.09
2019-02-11T10:42:31.870Z,101471.66
2019-02-11T10:43:37.315Z,101474.20
2019-02-11T10:44:42.538Z,101477.34
2019-02-11T10:45:47.558Z,101484.89
2019-02-11T10:46:52.812Z,101480.53
2019-02-11T10:47:57.945Z,101488.47
2019-02-11T10:49:03.439Z,101485.08
2019-02-11T10:50:09.490Z,101490.91
2019-02-11T10:51:15.089Z,101491.41
2019-02-11T10:52:20.538Z,101488.84
2019-02-11T10:53:25.700Z,101495.38
2019-02-11T10:54:31.392Z,101495.19
2019-02-11T10:55:36.872Z,101503.79
2019-02-11T10:56:42.391Z,101504.61
2019-02-11T10:57:47.608Z,101498.31
2019-02-11T10:58:52.692Z,101507.38
2019-02-11T10:59:58.012Z,101503.03
2019-02-11T11:01:03.399Z,101512.28
2019-02-11T11:02:08.882Z,101503.42
2019-02-11T11:03:13.980Z,101508.52
2019-02-11T11:04:19.131Z,101502.27
2019-02-11T11:05:24.322Z,101507.55
2019-02-11T11:06:29.808Z,101506.16
2019-02-11T11:07:35.007Z,101510.87
2019-02-11T11:08:40.295Z,101518.72
2019-02-11T11:09:45.407Z,101522.12
2019-02-11T11:10:50.840Z,101519.94
2019-02-11T11:11:56.426Z,101522.12
2019-02-11T11:13:04.020Z,101519.58
2019-02-11T11:14:09.456Z,101514.37
2019-02-11T11:15:15.249Z,101524.02
2019-02-11T11:16:20.493Z,101522.70
2019-02-11T11:17:25.504Z,101526.09
2019-02-11T11:18:30.826Z,101525.23
2019-02-11T11:19:36.534Z,101524.87
2019-02-11T11:20:41.807Z,101527.80
2019-02-11T11:21:47.069Z,101529.05
2019-02-11T11:22:52.385Z,101535.94
2019-02-11T11:23:57.527Z,101532.72
2019-02-11T11:25:02.936Z,101538.75
2019-02-11T11:26:08.105Z,101540.93
2019-02-11T11:27:13.185Z,101539.25
2019-02-11T11:28:18.423Z,101543.69
2019-02-11T11:29:25.891Z,101545.86
2019-02-11T11:30:34.681Z,101545.29
2019-02-11T11:31:44.325Z,101546.61
2019-02-11T11:32:49.612Z,101540.46
2019-02-11T11:33:54.817Z,101540.19
2019-02-11T11:35:00.295Z,101543.02
2019-02-11T11:36:05.536Z,101549.05
2019-02-11T11:37:10.643Z,101541.04
2019-02-11T11:38:15.848Z,101544.44
2019-02-11T11:39:25.776Z,101546.89
2019-02-11T11:40:31.196Z,101555.97
2019-02-11T11:41:36.520Z,101557.28
2019-02-11T11:42:41.687Z,101565.61
2019-02-11T11:43:47.586Z,101568.84
2019-02-11T11:44:52.729Z,101561.55
2019-02-11T11:45:57.979Z,101573.53
2019-02-11T11:47:03.540Z,101578.08
2019-02-11T11:48:08.738Z,101574.66
2019-02-11T11:49:14.080Z,101576.66
2019-02-11T11:50:19.359Z,101576.46
2019-02-11T11:51:24.933Z,101584.66
2019-02-11T11:52:30.260Z,101584.09
2019-02-11T11:53:36.970Z,101581.70
2019-02-11T11:54:42.274Z,101590.21
2019-02-11T11:55:47.387Z,101584.60
2019-02-11T11:56:52.507Z,101585.75
2019-02-11T11:58:02.482Z,101591.58
2019-02-11T11:59:10.391Z,101592.23
2019-02-11T12:00:18.699Z,101596.84
2019-02-11T12:01:24.114Z,101608.55
2019-02-11T12:02:29.273Z,101610.41
2019-02-11T12:03:34.713Z,101614.02
2019-02-11T12:04:40.209Z,101615.70
2019-02-11T12:05:45.541Z,101610.98
2019-02-11T12:06:50.840Z,101617.98
2019-02-11T12:07:55.996Z,101617.59
2019-02-11T12:09:01.197Z,101614.95
2019-02-11T12:10:06.872Z,101620.23
2019-02-11T12:11:12.094Z,101614.95
2019-02-11T12:12:17.398Z,101621.56
2019-02-11T12:13:23.689Z,101619.84
2019-02-11T12:14:29.219Z,101624.45
2019-02-11T12:15:34.968Z,101630.59
2019-02-11T12:16:56.334Z,101628.88
2019-02-11T12:17:47.660Z,101631.62
2019-02-11T12:18:53.248Z,101636.52
2019-02-11T12:19:58.763Z,101641.34
2019-02-11T12:21:04.037Z,101648.06
2019-02-11T12:22:12.815Z,101647.73
2019-02-11T12:23:16.526Z,101656.31
2019-02-11T12:24:21.784Z,101663.02
2019-02-11T12:25:27.180Z,101663.55
2019-02-11T12:26:32.315Z,101669.41
2019-02-11T12:27:37.766Z,101666.94
2019-02-11T12:28:43.131Z,101664.47
2019-02-11T12:29:50.035Z,101674.64
2019-02-11T12:30:55.185Z,101675.59
2019-02-11T12:32:00.425Z,101674.81
2019-02-11T12:33:05.663Z,101672.56
2019-02-11T12:34:11.044Z,101683.99